sensor_id;sensor_type;location;lat;lon;timestamp;temperature;humidity
46490;DHT22;32204;49.160;8.580;2023-04-24T00:02:12;13.50;35.60
46490;DHT22;32204;49.160;8.580;2023-04-24T00:04:38;13.50;99.90
46490;DHT22;32204;49.160;8.580;2023-04-24T00:07:11;13.40;99.90
46490;DHT22;32204;49.160;8.580;2023-04-24T00:09:38;13.40;99.90
46490;DHT22;32204;49.160;8.580;2023-04-24T00:12:04;13.40;99.90
46490;DHT22;32204;49.160;8.580;2023-04-24T00:14:32;13.40;99.90
46490;DHT22;32204;49.160;8.580;2023-04-24T00:16:58;13.30;99.90
46490;DHT22;32204;49.160;8.580;2023-04-24T00:19:23;13.30;1.00
46490;DHT22;32204;49.160;8.580;2023-04-24T00:21:49;13.40;1.00
46490;DHT22;32204;49.160;8.580;2023-04-24T00:24:16;13.40;99.90
46490;DHT22;32204;49.160;8.580;2023-04-24T00:26:42;13.50;1.00
46490;DHT22;32204;49.160;8.580;2023-04-24T00:29:07;13.50;99.90
46490;DHT22;32204;49.160;8.580;2023-04-24T00:31:33;13.50;99.90
46490;DHT22;32204;49.160;8.580;2023-04-24T00:34:02;13.40;1.00
46490;DHT22;32204;49.160;8.580;2023-04-24T00:36:28;13.50;1.00
46490;DHT22;32204;49.160;8.580;2023-04-24T00:38:54;13.50;1.00
46490;DHT22;32204;49.160;8.580;2023-04-24T00:41:21;13.50;99.90
46490;DHT22;32204;49.160;8.580;2023-04-24T00:43:47;13.50;99.90
46490;DHT22;32204;49.160;8.580;2023-04-24T00:46:13;13.60;99.90
46490;DHT22;32204;49.160;8.580;2023-04-24T00:48:39;13.60;99.90
46490;DHT22;32204;49.160;8.580;2023-04-24T00:51:05;13.50;1.00
46490;DHT22;32204;49.160;8.580;2023-04-24T00:53:31;13.50;99.90
46490;DHT22;32204;49.160;8.580;2023-04-24T00:55:58;13.40;99.90
46490;DHT22;32204;49.160;8.580;2023-04-24T00:58:24;13.40;99.90
46490;DHT22;32204;49.160;8.580;2023-04-24T01:00:50;13.50;99.90
46490;DHT22;32204;49.160;8.580;2023-04-24T01:03:22;13.50;99.90
46490;DHT22;32204;49.160;8.580;2023-04-24T01:05:49;13.50;20.40
46490;DHT22;32204;49.160;8.580;2023-04-24T01:08:14;13.60;99.90
46490;DHT22;32204;49.160;8.580;2023-04-24T01:10:41;13.60;1.00
46490;DHT22;32204;49.160;8.580;2023-04-24T01:13:10;13.60;99.90
46490;DHT22;32204;49.160;8.580;2023-04-24T01:15:36;13.70;81.90
46490;DHT22;32204;49.160;8.580;2023-04-24T01:18:02;13.70;27.60
46490;DHT22;32204;49.160;8.580;2023-04-24T01:20:28;13.60;1.00
46490;DHT22;32204;49.160;8.580;2023-04-24T01:22:55;13.60;99.90
46490;DHT22;32204;49.160;8.580;2023-04-24T01:25:22;13.60;82.90
46490;DHT22;32204;49.160;8.580;2023-04-24T01:27:48;13.50;99.90
46490;DHT22;32204;49.160;8.580;2023-04-24T01:30:14;13.60;48.80
46490;DHT22;32204;49.160;8.580;2023-04-24T01:32:41;13.50;53.10
46490;DHT22;32204;49.160;8.580;2023-04-24T01:35:09;13.50;99.90
46490;DHT22;32204;49.160;8.580;2023-04-24T01:37:35;13.50;99.90
46490;DHT22;32204;49.160;8.580;2023-04-24T01:40:03;13.50;99.90
46490;DHT22;32204;49.160;8.580;2023-04-24T01:42:29;13.60;91.20
46490;DHT22;32204;49.160;8.580;2023-04-24T01:44:56;13.60;99.90
46490;DHT22;32204;49.160;8.580;2023-04-24T01:47:22;13.60;99.90
46490;DHT22;32204;49.160;8.580;2023-04-24T01:49:48;13.70;99.90
46490;DHT22;32204;49.160;8.580;2023-04-24T01:52:15;13.70;1.00
46490;DHT22;32204;49.160;8.580;2023-04-24T01:54:41;13.70;1.00
46490;DHT22;32204;49.160;8.580;2023-04-24T01:57:07;13.60;1.00
46490;DHT22;32204;49.160;8.580;2023-04-24T01:59:34;13.50;99.90
46490;DHT22;32204;49.160;8.580;2023-04-24T02:02:02;13.50;1.00
46490;DHT22;32204;49.160;8.580;2023-04-24T02:04:28;13.50;80.50
46490;DHT22;32204;49.160;8.580;2023-04-24T02:06:54;13.40;68.60
46490;DHT22;32204;49.160;8.580;2023-04-24T02:09:19;13.50;99.90
46490;DHT22;32204;49.160;8.580;2023-04-24T02:11:45;13.40;99.90
46490;DHT22;32204;49.160;8.580;2023-04-24T02:14:11;13.30;99.90
46490;DHT22;32204;49.160;8.580;2023-04-24T02:16:36;13.20;1.00
46490;DHT22;32204;49.160;8.580;2023-04-24T02:19:02;13.20;1.00
46490;DHT22;32204;49.160;8.580;2023-04-24T02:21:28;13.20;2.50
46490;DHT22;32204;49.160;8.580;2023-04-24T02:23:54;13.10;1.00
46490;DHT22;32204;49.160;8.580;2023-04-24T02:26:19;13.10;99.90
46490;DHT22;32204;49.160;8.580;2023-04-24T02:28:45;13.10;99.90
46490;DHT22;32204;49.160;8.580;2023-04-24T02:31:11;13.00;99.90
46490;DHT22;32204;49.160;8.580;2023-04-24T02:33:36;13.00;99.90
46490;DHT22;32204;49.160;8.580;2023-04-24T02:36:02;13.00;99.90
46490;DHT22;32204;49.160;8.580;2023-04-24T02:38:29;12.90;99.90
46490;DHT22;32204;49.160;8.580;2023-04-24T02:40:55;12.90;99.90
46490;DHT22;32204;49.160;8.580;2023-04-24T02:43:21;12.90;1.00
46490;DHT22;32204;49.160;8.580;2023-04-24T02:45:46;13.00;1.00
46490;DHT22;32204;49.160;8.580;2023-04-24T02:48:12;13.00;1.00
46490;DHT22;32204;49.160;8.580;2023-04-24T02:50:38;12.90;1.00
46490;DHT22;32204;49.160;8.580;2023-04-24T02:53:03;12.80;1.00
46490;DHT22;32204;49.160;8.580;2023-04-24T02:55:29;12.80;63.00
46490;DHT22;32204;49.160;8.580;2023-04-24T02:57:55;12.70;99.90
46490;DHT22;32204;49.160;8.580;2023-04-24T03:00:21;12.70;99.90
46490;DHT22;32204;49.160;8.580;2023-04-24T03:02:47;12.70;99.90
46490;DHT22;32204;49.160;8.580;2023-04-24T03:05:13;12.70;1.00
46490;DHT22;32204;49.160;8.580;2023-04-24T03:07:39;12.50;1.00
46490;DHT22;32204;49.160;8.580;2023-04-24T03:10:05;12.40;22.60
46490;DHT22;32204;49.160;8.580;2023-04-24T03:12:31;12.40;99.90
46490;DHT22;32204;49.160;8.580;2023-04-24T03:14:57;12.30;99.90
46490;DHT22;32204;49.160;8.580;2023-04-24T03:17:22;12.30;99.90
46490;DHT22;32204;49.160;8.580;2023-04-24T03:19:48;12.30;99.90
46490;DHT22;32204;49.160;8.580;2023-04-24T03:22:13;12.30;99.90
46490;DHT22;32204;49.160;8.580;2023-04-24T03:24:39;12.10;99.90
46490;DHT22;32204;49.160;8.580;2023-04-24T03:27:05;11.70;99.90
46490;DHT22;32204;49.160;8.580;2023-04-24T03:29:31;11.50;99.90
46490;DHT22;32204;49.160;8.580;2023-04-24T03:31:56;11.40;99.90
46490;DHT22;32204;49.160;8.580;2023-04-24T03:34:22;11.20;99.90
46490;DHT22;32204;49.160;8.580;2023-04-24T03:36:48;11.20;99.90
46490;DHT22;32204;49.160;8.580;2023-04-24T03:39:13;11.00;99.90
46490;DHT22;32204;49.160;8.580;2023-04-24T03:41:39;11.00;99.90
46490;DHT22;32204;49.160;8.580;2023-04-24T03:44:05;10.90;99.90
46490;DHT22;32204;49.160;8.580;2023-04-24T03:46:31;10.90;99.90
46490;DHT22;32204;49.160;8.580;2023-04-24T03:48:56;10.90;99.90
46490;DHT22;32204;49.160;8.580;2023-04-24T03:51:22;11.00;99.90
46490;DHT22;32204;49.160;8.580;2023-04-24T03:53:48;11.10;99.90
46490;DHT22;32204;49.160;8.580;2023-04-24T03:56:14;11.20;99.90
46490;DHT22;32204;49.160;8.580;2023-04-24T03:58:40;11.30;99.90
46490;DHT22;32204;49.160;8.580;2023-04-24T04:01:05;11.40;99.90
46490;DHT22;32204;49.160;8.580;2023-04-24T04:03:31;11.50;99.90
46490;DHT22;32204;49.160;8.580;2023-04-24T04:05:57;11.50;99.90
46490;DHT22;32204;49.160;8.580;2023-04-24T04:08:23;11.50;39.00
46490;DHT22;32204;49.160;8.580;2023-04-24T04:10:48;11.50;40.80
46490;DHT22;32204;49.160;8.580;2023-04-24T04:13:14;11.50;17.50
46490;DHT22;32204;49.160;8.580;2023-04-24T04:15:40;11.60;74.10
46490;DHT22;32204;49.160;8.580;2023-04-24T04:18:05;11.60;23.90
46490;DHT22;32204;49.160;8.580;2023-04-24T04:20:31;11.60;19.50
46490;DHT22;32204;49.160;8.580;2023-04-24T04:22:57;11.50;17.90
46490;DHT22;32204;49.160;8.580;2023-04-24T04:25:22;11.40;11.20
46490;DHT22;32204;49.160;8.580;2023-04-24T04:27:48;11.40;33.70
46490;DHT22;32204;49.160;8.580;2023-04-24T04:30:14;11.30;19.20
46490;DHT22;32204;49.160;8.580;2023-04-24T04:32:40;11.20;58.50
46490;DHT22;32204;49.160;8.580;2023-04-24T04:35:06;11.10;99.90
46490;DHT22;32204;49.160;8.580;2023-04-24T04:37:32;11.00;92.00
46490;DHT22;32204;49.160;8.580;2023-04-24T04:40:02;10.90;99.90
46490;DHT22;32204;49.160;8.580;2023-04-24T04:42:37;10.80;99.90
46490;DHT22;32204;49.160;8.580;2023-04-24T04:45:09;10.80;99.90
46490;DHT22;32204;49.160;8.580;2023-04-24T04:47:37;10.70;99.90
46490;DHT22;32204;49.160;8.580;2023-04-24T04:50:03;10.70;99.90
46490;DHT22;32204;49.160;8.580;2023-04-24T04:52:29;10.70;91.40
46490;DHT22;32204;49.160;8.580;2023-04-24T04:54:55;10.80;99.70
46490;DHT22;32204;49.160;8.580;2023-04-24T04:57:21;10.90;89.20
46490;DHT22;32204;49.160;8.580;2023-04-24T04:59:47;11.10;16.50
46490;DHT22;32204;49.160;8.580;2023-04-24T05:02:12;11.20;1.00
46490;DHT22;32204;49.160;8.580;2023-04-24T05:04:38;11.20;1.00
46490;DHT22;32204;49.160;8.580;2023-04-24T05:07:03;11.10;1.00
46490;DHT22;32204;49.160;8.580;2023-04-24T05:09:30;11.10;1.00
46490;DHT22;32204;49.160;8.580;2023-04-24T05:11:55;11.30;1.00
46490;DHT22;32204;49.160;8.580;2023-04-24T05:14:21;12.30;99.90
46490;DHT22;32204;49.160;8.580;2023-04-24T05:16:47;13.20;99.90
46490;DHT22;32204;49.160;8.580;2023-04-24T05:19:13;14.20;1.00
46490;DHT22;32204;49.160;8.580;2023-04-24T05:21:40;14.70;1.00
46490;DHT22;32204;49.160;8.580;2023-04-24T05:24:06;15.40;8.50
46490;DHT22;32204;49.160;8.580;2023-04-24T05:26:31;15.90;99.90
46490;DHT22;32204;49.160;8.580;2023-04-24T05:28:57;16.50;1.00
46490;DHT22;32204;49.160;8.580;2023-04-24T05:31:23;17.00;14.00
46490;DHT22;32204;49.160;8.580;2023-04-24T05:33:48;17.50;1.00
46490;DHT22;32204;49.160;8.580;2023-04-24T05:36:14;17.90;99.90
46490;DHT22;32204;49.160;8.580;2023-04-24T05:38:40;18.30;6.50
46490;DHT22;32204;49.160;8.580;2023-04-24T05:41:05;18.00;1.00
46490;DHT22;32204;49.160;8.580;2023-04-24T05:43:31;17.70;99.90
46490;DHT22;32204;49.160;8.580;2023-04-24T05:45:57;17.80;99.90
46490;DHT22;32204;49.160;8.580;2023-04-24T05:48:22;17.80;99.90
46490;DHT22;32204;49.160;8.580;2023-04-24T05:50:48;17.00;11.80
46490;DHT22;32204;49.160;8.580;2023-04-24T05:53:14;16.10;1.00
46490;DHT22;32204;49.160;8.580;2023-04-24T05:55:40;15.30;1.00
46490;DHT22;32204;49.160;8.580;2023-04-24T05:58:05;14.90;99.90
46490;DHT22;32204;49.160;8.580;2023-04-24T06:00:31;15.40;99.90
46490;DHT22;32204;49.160;8.580;2023-04-24T06:02:59;15.30;1.00
46490;DHT22;32204;49.160;8.580;2023-04-24T06:05:24;15.90;1.00
46490;DHT22;32204;49.160;8.580;2023-04-24T06:07:50;17.00;99.90
46490;DHT22;32204;49.160;8.580;2023-04-24T06:10:16;17.90;1.00
46490;DHT22;32204;49.160;8.580;2023-04-24T06:12:42;17.90;1.00
46490;DHT22;32204;49.160;8.580;2023-04-24T06:15:08;16.50;99.90
46490;DHT22;32204;49.160;8.580;2023-04-24T06:17:34;16.10;99.90
46490;DHT22;32204;49.160;8.580;2023-04-24T06:19:59;14.90;1.00
46490;DHT22;32204;49.160;8.580;2023-04-24T06:22:25;14.10;2.90
46490;DHT22;32204;49.160;8.580;2023-04-24T06:24:51;13.60;99.90
46490;DHT22;32204;49.160;8.580;2023-04-24T06:27:16;13.00;99.90
46490;DHT22;32204;49.160;8.580;2023-04-24T06:29:42;12.80;3.60
46490;DHT22;32204;49.160;8.580;2023-04-24T06:32:07;12.90;99.90
46490;DHT22;32204;49.160;8.580;2023-04-24T06:34:33;13.80;1.00
46490;DHT22;32204;49.160;8.580;2023-04-24T06:37:00;14.20;99.90
46490;DHT22;32204;49.160;8.580;2023-04-24T06:39:25;14.10;1.00
46490;DHT22;32204;49.160;8.580;2023-04-24T06:41:51;13.90;1.00
46490;DHT22;32204;49.160;8.580;2023-04-24T06:44:18;13.50;99.90
46490;DHT22;32204;49.160;8.580;2023-04-24T06:46:43;14.00;1.00
46490;DHT22;32204;49.160;8.580;2023-04-24T06:49:09;14.50;99.90
46490;DHT22;32204;49.160;8.580;2023-04-24T06:51:35;14.60;74.10
46490;DHT22;32204;49.160;8.580;2023-04-24T06:54:00;14.20;1.00
46490;DHT22;32204;49.160;8.580;2023-04-24T06:56:27;13.90;99.90
46490;DHT22;32204;49.160;8.580;2023-04-24T06:58:54;13.50;99.90
46490;DHT22;32204;49.160;8.580;2023-04-24T07:01:20;13.20;1.00
46490;DHT22;32204;49.160;8.580;2023-04-24T07:03:46;13.00;1.00
46490;DHT22;32204;49.160;8.580;2023-04-24T07:06:11;12.90;1.00
46490;DHT22;32204;49.160;8.580;2023-04-24T07:08:38;12.90;99.90
46490;DHT22;32204;49.160;8.580;2023-04-24T07:11:03;12.80;1.00
46490;DHT22;32204;49.160;8.580;2023-04-24T07:13:29;12.80;99.90
46490;DHT22;32204;49.160;8.580;2023-04-24T07:15:55;12.90;99.90
46490;DHT22;32204;49.160;8.580;2023-04-24T07:18:21;12.80;99.90
46490;DHT22;32204;49.160;8.580;2023-04-24T07:20:47;12.70;99.90
46490;DHT22;32204;49.160;8.580;2023-04-24T07:23:13;12.60;1.00
46490;DHT22;32204;49.160;8.580;2023-04-24T07:25:39;12.70;1.00
46490;DHT22;32204;49.160;8.580;2023-04-24T07:28:05;13.60;1.00
46490;DHT22;32204;49.160;8.580;2023-04-24T07:30:31;13.70;99.90
46490;DHT22;32204;49.160;8.580;2023-04-24T07:32:58;13.10;99.90
46490;DHT22;32204;49.160;8.580;2023-04-24T07:35:25;12.70;99.90
46490;DHT22;32204;49.160;8.580;2023-04-24T07:37:53;12.60;99.90
46490;DHT22;32204;49.160;8.580;2023-04-24T07:40:19;12.50;50.40
46490;DHT22;32204;49.160;8.580;2023-04-24T07:42:45;12.50;99.90
46490;DHT22;32204;49.160;8.580;2023-04-24T07:45:14;12.40;99.90
46490;DHT22;32204;49.160;8.580;2023-04-24T07:47:41;12.40;1.00
46490;DHT22;32204;49.160;8.580;2023-04-24T07:50:09;12.30;99.90
46490;DHT22;32204;49.160;8.580;2023-04-24T07:52:35;12.00;1.00
46490;DHT22;32204;49.160;8.580;2023-04-24T07:55:02;11.70;99.90
46490;DHT22;32204;49.160;8.580;2023-04-24T07:57:28;11.50;99.90
46490;DHT22;32204;49.160;8.580;2023-04-24T07:59:54;11.50;99.90
46490;DHT22;32204;49.160;8.580;2023-04-24T08:02:20;11.40;1.00
46490;DHT22;32204;49.160;8.580;2023-04-24T08:04:52;11.40;99.90
46490;DHT22;32204;49.160;8.580;2023-04-24T08:07:18;11.50;1.00
46490;DHT22;32204;49.160;8.580;2023-04-24T08:09:44;11.80;99.90
46490;DHT22;32204;49.160;8.580;2023-04-24T08:12:09;11.80;53.30
46490;DHT22;32204;49.160;8.580;2023-04-24T08:14:35;11.80;26.70
46490;DHT22;32204;49.160;8.580;2023-04-24T08:17:01;11.90;99.90
46490;DHT22;32204;49.160;8.580;2023-04-24T08:19:27;12.10;87.40
46490;DHT22;32204;49.160;8.580;2023-04-24T08:21:53;12.10;99.90
46490;DHT22;32204;49.160;8.580;2023-04-24T08:24:18;12.30;1.00
46490;DHT22;32204;49.160;8.580;2023-04-24T08:26:44;12.40;1.00
46490;DHT22;32204;49.160;8.580;2023-04-24T08:29:10;12.70;99.90
46490;DHT22;32204;49.160;8.580;2023-04-24T08:31:36;13.00;99.90
46490;DHT22;32204;49.160;8.580;2023-04-24T08:34:01;13.10;99.90
46490;DHT22;32204;49.160;8.580;2023-04-24T08:36:27;13.20;99.90
46490;DHT22;32204;49.160;8.580;2023-04-24T08:38:53;13.10;97.60
46490;DHT22;32204;49.160;8.580;2023-04-24T08:41:19;13.00;99.90
46490;DHT22;32204;49.160;8.580;2023-04-24T08:43:48;13.00;99.90
46490;DHT22;32204;49.160;8.580;2023-04-24T08:46:15;13.00;1.00
46490;DHT22;32204;49.160;8.580;2023-04-24T08:48:42;12.90;99.90
46490;DHT22;32204;49.160;8.580;2023-04-24T08:51:08;12.80;99.90
46490;DHT22;32204;49.160;8.580;2023-04-24T08:53:35;12.70;99.90
46490;DHT22;32204;49.160;8.580;2023-04-24T08:56:01;12.70;1.00
46490;DHT22;32204;49.160;8.580;2023-04-24T08:58:28;12.70;26.80
46490;DHT22;32204;49.160;8.580;2023-04-24T09:00:57;12.60;1.00
46490;DHT22;32204;49.160;8.580;2023-04-24T09:03:23;12.70;39.40
46490;DHT22;32204;49.160;8.580;2023-04-24T09:05:49;12.80;99.90
46490;DHT22;32204;49.160;8.580;2023-04-24T09:08:19;12.90;1.00
46490;DHT22;32204;49.160;8.580;2023-04-24T09:10:45;13.00;99.90
46490;DHT22;32204;49.160;8.580;2023-04-24T09:13:10;12.80;1.00
46490;DHT22;32204;49.160;8.580;2023-04-24T09:15:38;12.70;1.00
46490;DHT22;32204;49.160;8.580;2023-04-24T09:18:04;12.70;30.20
46490;DHT22;32204;49.160;8.580;2023-04-24T09:20:31;12.50;1.00
46490;DHT22;32204;49.160;8.580;2023-04-24T09:22:57;12.50;99.90
46490;DHT22;32204;49.160;8.580;2023-04-24T09:25:34;12.30;99.90
46490;DHT22;32204;49.160;8.580;2023-04-24T09:28:02;12.20;1.00
46490;DHT22;32204;49.160;8.580;2023-04-24T09:30:29;12.10;1.00
46490;DHT22;32204;49.160;8.580;2023-04-24T09:33:12;12.10;99.90
46490;DHT22;32204;49.160;8.580;2023-04-24T09:35:50;12.00;45.20
46490;DHT22;32204;49.160;8.580;2023-04-24T09:38:15;12.00;99.90
46490;DHT22;32204;49.160;8.580;2023-04-24T09:40:41;12.00;99.90
46490;DHT22;32204;49.160;8.580;2023-04-24T09:43:10;11.90;99.90
46490;DHT22;32204;49.160;8.580;2023-04-24T09:45:37;11.90;99.90
46490;DHT22;32204;49.160;8.580;2023-04-24T09:48:03;11.90;99.90
46490;DHT22;32204;49.160;8.580;2023-04-24T09:50:31;11.90;26.10
46490;DHT22;32204;49.160;8.580;2023-04-24T09:53:04;11.90;99.90
46490;DHT22;32204;49.160;8.580;2023-04-24T09:55:32;12.00;1.00
46490;DHT22;32204;49.160;8.580;2023-04-24T09:58:00;12.00;1.00
46490;DHT22;32204;49.160;8.580;2023-04-24T10:00:31;12.10;1.00
46490;DHT22;32204;49.160;8.580;2023-04-24T10:03:01;12.30;99.90
46490;DHT22;32204;49.160;8.580;2023-04-24T10:05:29;12.50;99.90
46490;DHT22;32204;49.160;8.580;2023-04-24T10:08:05;12.90;1.00
46490;DHT22;32204;49.160;8.580;2023-04-24T10:10:32;13.20;99.90
46490;DHT22;32204;49.160;8.580;2023-04-24T10:12:59;13.20;54.00
46490;DHT22;32204;49.160;8.580;2023-04-24T10:15:26;13.10;1.00
46490;DHT22;32204;49.160;8.580;2023-04-24T10:17:52;13.10;99.90
46490;DHT22;32204;49.160;8.580;2023-04-24T10:20:25;13.00;1.00
46490;DHT22;32204;49.160;8.580;2023-04-24T10:22:53;12.70;1.00
46490;DHT22;32204;49.160;8.580;2023-04-24T10:25:30;12.70;32.60
46490;DHT22;32204;49.160;8.580;2023-04-24T10:27:57;12.60;1.00
46490;DHT22;32204;49.160;8.580;2023-04-24T10:30:25;12.60;99.90
46490;DHT22;32204;49.160;8.580;2023-04-24T10:32:50;12.50;99.90
46490;DHT22;32204;49.160;8.580;2023-04-24T10:35:17;12.50;99.90
46490;DHT22;32204;49.160;8.580;2023-04-24T10:37:49;12.30;99.90
46490;DHT22;32204;49.160;8.580;2023-04-24T10:40:26;12.10;1.00
46490;DHT22;32204;49.160;8.580;2023-04-24T10:42:52;11.80;99.90
46490;DHT22;32204;49.160;8.580;2023-04-24T10:45:21;11.50;99.90
46490;DHT22;32204;49.160;8.580;2023-04-24T10:48:02;11.30;31.90
46490;DHT22;32204;49.160;8.580;2023-04-24T10:50:34;11.30;99.90
46490;DHT22;32204;49.160;8.580;2023-04-24T10:53:11;11.20;99.90
46490;DHT22;32204;49.160;8.580;2023-04-24T10:58:09;11.30;99.90
46490;DHT22;32204;49.160;8.580;2023-04-24T11:00:40;11.30;99.90
46490;DHT22;32204;49.160;8.580;2023-04-24T11:03:12;11.30;1.00
46490;DHT22;32204;49.160;8.580;2023-04-24T11:05:52;11.30;1.00
46490;DHT22;32204;49.160;8.580;2023-04-24T11:08:29;11.40;99.90
46490;DHT22;32204;49.160;8.580;2023-04-24T11:11:13;11.50;1.00
46490;DHT22;32204;49.160;8.580;2023-04-24T11:16:33;11.80;1.00
46490;DHT22;32204;49.160;8.580;2023-04-24T11:21:54;12.00;99.90
46490;DHT22;32204;49.160;8.580;2023-04-24T11:27:40;12.20;99.90
46490;DHT22;32204;49.160;8.580;2023-04-24T11:30:10;12.00;99.90
46490;DHT22;32204;49.160;8.580;2023-04-24T11:32:40;11.90;43.80
46490;DHT22;32204;49.160;8.580;2023-04-24T11:37:44;11.80;99.90
46490;DHT22;32204;49.160;8.580;2023-04-24T11:40:18;11.60;1.00
46490;DHT22;32204;49.160;8.580;2023-04-24T11:42:49;11.50;99.90
46490;DHT22;32204;49.160;8.580;2023-04-24T11:45:18;11.50;1.30
46490;DHT22;32204;49.160;8.580;2023-04-24T11:47:45;11.40;99.90
46490;DHT22;32204;49.160;8.580;2023-04-24T11:50:12;11.30;1.00
46490;DHT22;32204;49.160;8.580;2023-04-24T11:52:43;11.20;99.90
46490;DHT22;32204;49.160;8.580;2023-04-24T11:55:29;11.20;89.20
46490;DHT22;32204;49.160;8.580;2023-04-24T11:57:59;11.50;1.00
46490;DHT22;32204;49.160;8.580;2023-04-24T12:00:27;12.00;99.90
46490;DHT22;32204;49.160;8.580;2023-04-24T12:03:10;12.50;99.90
46490;DHT22;32204;49.160;8.580;2023-04-24T12:05:37;12.90;30.00
46490;DHT22;32204;49.160;8.580;2023-04-24T12:08:03;13.20;1.00
46490;DHT22;32204;49.160;8.580;2023-04-24T12:10:31;13.40;1.00
46490;DHT22;32204;49.160;8.580;2023-04-24T12:12:57;13.50;1.00
46490;DHT22;32204;49.160;8.580;2023-04-24T12:15:23;13.60;99.90
46490;DHT22;32204;49.160;8.580;2023-04-24T12:17:53;13.60;99.90
46490;DHT22;32204;49.160;8.580;2023-04-24T12:20:32;13.60;1.00
46490;DHT22;32204;49.160;8.580;2023-04-24T12:23:00;13.50;1.00
46490;DHT22;32204;49.160;8.580;2023-04-24T12:25:31;13.60;99.90
46490;DHT22;32204;49.160;8.580;2023-04-24T12:30:38;13.20;99.90
46490;DHT22;32204;49.160;8.580;2023-04-24T12:33:04;13.00;99.90
46490;DHT22;32204;49.160;8.580;2023-04-24T12:35:31;13.10;99.90
46490;DHT22;32204;49.160;8.580;2023-04-24T12:38:15;13.00;1.00
46490;DHT22;32204;49.160;8.580;2023-04-24T12:40:42;13.00;99.90
46490;DHT22;32204;49.160;8.580;2023-04-24T12:43:16;13.10;99.90
46490;DHT22;32204;49.160;8.580;2023-04-24T12:45:42;13.20;99.90
46490;DHT22;32204;49.160;8.580;2023-04-24T12:48:07;13.20;1.00
46490;DHT22;32204;49.160;8.580;2023-04-24T12:50:33;13.20;99.90
46490;DHT22;32204;49.160;8.580;2023-04-24T12:52:59;13.00;99.90
46490;DHT22;32204;49.160;8.580;2023-04-24T12:55:25;13.10;99.90
46490;DHT22;32204;49.160;8.580;2023-04-24T12:57:50;13.20;1.00
46490;DHT22;32204;49.160;8.580;2023-04-24T13:00:17;13.50;99.90
46490;DHT22;32204;49.160;8.580;2023-04-24T13:02:43;13.90;1.00
46490;DHT22;32204;49.160;8.580;2023-04-24T13:05:09;14.20;1.00
46490;DHT22;32204;49.160;8.580;2023-04-24T13:07:34;14.20;99.90
46490;DHT22;32204;49.160;8.580;2023-04-24T13:10:00;14.20;99.90
46490;DHT22;32204;49.160;8.580;2023-04-24T13:12:25;14.20;99.90
46490;DHT22;32204;49.160;8.580;2023-04-24T13:14:52;14.20;21.60
46490;DHT22;32204;49.160;8.580;2023-04-24T13:17:18;14.20;1.00
46490;DHT22;32204;49.160;8.580;2023-04-24T13:19:44;14.20;6.20
46490;DHT22;32204;49.160;8.580;2023-04-24T13:22:12;14.20;99.90
46490;DHT22;32204;49.160;8.580;2023-04-24T13:24:38;14.50;99.90
46490;DHT22;32204;49.160;8.580;2023-04-24T13:27:08;14.60;99.90
46490;DHT22;32204;49.160;8.580;2023-04-24T13:29:34;14.50;99.90
46490;DHT22;32204;49.160;8.580;2023-04-24T13:32:00;14.70;99.90
46490;DHT22;32204;49.160;8.580;2023-04-24T13:34:26;14.80;99.90
46490;DHT22;32204;49.160;8.580;2023-04-24T13:36:53;14.80;99.90
46490;DHT22;32204;49.160;8.580;2023-04-24T13:39:19;14.60;99.90
46490;DHT22;32204;49.160;8.580;2023-04-24T13:41:45;14.60;99.90
46490;DHT22;32204;49.160;8.580;2023-04-24T13:44:13;14.70;67.20
46490;DHT22;32204;49.160;8.580;2023-04-24T13:46:39;15.00;99.90
46490;DHT22;32204;49.160;8.580;2023-04-24T13:49:05;15.00;1.00
46490;DHT22;32204;49.160;8.580;2023-04-24T13:51:30;14.90;1.00
46490;DHT22;32204;49.160;8.580;2023-04-24T13:53:56;14.90;1.00
46490;DHT22;32204;49.160;8.580;2023-04-24T13:56:22;14.90;1.00
46490;DHT22;32204;49.160;8.580;2023-04-24T13:58:48;14.70;1.00
46490;DHT22;32204;49.160;8.580;2023-04-24T14:01:14;14.70;1.00
46490;DHT22;32204;49.160;8.580;2023-04-24T14:03:41;14.70;1.00
46490;DHT22;32204;49.160;8.580;2023-04-24T14:06:08;14.60;1.00
46490;DHT22;32204;49.160;8.580;2023-04-24T14:08:34;14.50;1.00
46490;DHT22;32204;49.160;8.580;2023-04-24T14:10:59;14.50;1.00
46490;DHT22;32204;49.160;8.580;2023-04-24T14:13:25;14.50;56.60
46490;DHT22;32204;49.160;8.580;2023-04-24T14:15:51;14.50;1.00
46490;DHT22;32204;49.160;8.580;2023-04-24T14:18:18;14.60;6.40
46490;DHT22;32204;49.160;8.580;2023-04-24T14:20:44;14.60;1.00
46490;DHT22;32204;49.160;8.580;2023-04-24T14:23:09;14.60;1.00
46490;DHT22;32204;49.160;8.580;2023-04-24T14:25:35;14.60;1.00
46490;DHT22;32204;49.160;8.580;2023-04-24T14:28:01;14.60;1.00
46490;DHT22;32204;49.160;8.580;2023-04-24T14:30:26;14.80;1.00
46490;DHT22;32204;49.160;8.580;2023-04-24T14:32:52;14.90;1.00
46490;DHT22;32204;49.160;8.580;2023-04-24T14:35:17;15.00;1.00
46490;DHT22;32204;49.160;8.580;2023-04-24T14:37:43;15.10;99.90
46490;DHT22;32204;49.160;8.580;2023-04-24T14:40:09;14.90;1.00
46490;DHT22;32204;49.160;8.580;2023-04-24T14:42:35;14.70;1.00
46490;DHT22;32204;49.160;8.580;2023-04-24T14:45:01;14.90;1.00
46490;DHT22;32204;49.160;8.580;2023-04-24T14:47:27;14.80;1.00
46490;DHT22;32204;49.160;8.580;2023-04-24T14:49:53;14.60;1.00
46490;DHT22;32204;49.160;8.580;2023-04-24T14:52:18;14.50;1.00
46490;DHT22;32204;49.160;8.580;2023-04-24T14:54:44;14.50;1.00
46490;DHT22;32204;49.160;8.580;2023-04-24T14:57:10;14.30;1.00
46490;DHT22;32204;49.160;8.580;2023-04-24T14:59:36;14.30;1.00
46490;DHT22;32204;49.160;8.580;2023-04-24T15:02:01;14.30;43.80
46490;DHT22;32204;49.160;8.580;2023-04-24T15:04:28;14.40;99.90
46490;DHT22;32204;49.160;8.580;2023-04-24T15:06:55;14.30;35.20
46490;DHT22;32204;49.160;8.580;2023-04-24T15:09:21;14.20;13.80
46490;DHT22;32204;49.160;8.580;2023-04-24T15:11:48;14.10;24.40
46490;DHT22;32204;49.160;8.580;2023-04-24T15:14:14;14.10;99.90
46490;DHT22;32204;49.160;8.580;2023-04-24T15:16:40;14.20;93.90
46490;DHT22;32204;49.160;8.580;2023-04-24T15:19:06;14.00;49.60
46490;DHT22;32204;49.160;8.580;2023-04-24T15:21:31;13.80;99.90
46490;DHT22;32204;49.160;8.580;2023-04-24T15:23:58;13.70;99.90
46490;DHT22;32204;49.160;8.580;2023-04-24T15:26:24;13.70;1.00
46490;DHT22;32204;49.160;8.580;2023-04-24T15:28:50;13.60;99.90
46490;DHT22;32204;49.160;8.580;2023-04-24T15:31:17;13.60;1.00
46490;DHT22;32204;49.160;8.580;2023-04-24T15:33:42;13.50;99.90
46490;DHT22;32204;49.160;8.580;2023-04-24T15:36:08;13.40;1.00
46490;DHT22;32204;49.160;8.580;2023-04-24T15:38:34;13.30;1.00
46490;DHT22;32204;49.160;8.580;2023-04-24T15:40:59;13.30;99.90
46490;DHT22;32204;49.160;8.580;2023-04-24T15:43:25;13.20;99.90
46490;DHT22;32204;49.160;8.580;2023-04-24T15:45:51;13.20;99.90
46490;DHT22;32204;49.160;8.580;2023-04-24T15:48:16;13.10;1.00
46490;DHT22;32204;49.160;8.580;2023-04-24T15:50:42;13.00;99.90